Time,TemperatureF,DewpointF,PressureIn,WindDirection,WindDirectionDegrees,WindSpeedMPH,WindSpeedGustMPH,Humidity,HourlyPrecipIn,Conditions,Clouds,dailyrainin,SoftwareType,DateUTC
2013-03-24 00:03:00,44.0,30.0,-100.00,NNE,23,8.0,11.0,60,0.00,,,0.00,,2013-03-24 04:03:00,
2013-03-24 00:13:00,44.0,30.0,-100.00,NNE,23,8.0,11.0,60,0.00,,,0.00,,2013-03-24 04:13:00,
2013-03-24 00:23:00,44.0,30.0,-100.00,NNE,28,7.0,13.0,58,0.00,,,0.00,,2013-03-24 04:23:00,
2013-03-24 00:33:00,44.0,30.0,-100.00,NNE,28,7.0,13.0,58,0.00,,,0.00,,2013-03-24 04:33:00,
2013-03-24 00:43:00,44.0,30.0,-100.00,NNE,28,7.0,13.0,58,0.00,,,0.00,,2013-03-24 04:43:00,
2013-03-24 00:53:00,44.0,30.0,-100.00,NNE,28,7.0,13.0,58,0.00,,,0.00,,2013-03-24 04:53:00,
2013-03-24 01:03:00,42.0,31.0,-100.00,NNW,335,4.0,6.0,63,0.00,,,0.00,,2013-03-24 05:03:00,
2013-03-24 01:13:00,42.0,31.0,-100.00,NNW,335,4.0,6.0,63,0.00,,,0.00,,2013-03-24 05:13:00,
2013-03-24 01:23:00,44.0,31.0,-100.00,North,4,5.0,10.0,61,0.00,,,0.00,,2013-03-24 05:23:00,
2013-03-24 01:32:00,44.0,31.0,-100.00,North,11,4.0,7.0,60,0.00,,,0.00,,2013-03-24 05:32:00,
2013-03-24 01:43:00,44.0,31.0,-100.00,North,11,4.0,7.0,60,0.00,,,0.00,,2013-03-24 05:43:00,
2013-03-24 01:52:00,43.0,31.0,-100.00,NNW,339,6.0,9.0,63,0.00,,,0.00,,2013-03-24 05:52:00,
2013-03-24 02:02:00,45.0,31.0,-100.00,NW,320,5.0,7.0,58,0.00,,,0.00,,2013-03-24 06:02:00,
2013-03-24 02:12:00,45.0,31.0,-100.00,NW,320,5.0,7.0,58,0.00,,,0.00,,2013-03-24 06:12:00,
2013-03-24 02:22:00,44.0,31.0,-100.00,NW,323,3.0,6.0,61,0.00,,,0.00,,2013-03-24 06:22:00,
2013-03-24 02:32:00,43.0,31.0,-100.00,SW,232,3.0,6.0,63,0.00,,,0.00,,2013-03-24 06:32:00,
2013-03-24 02:42:00,43.0,31.0,-100.00,SW,232,3.0,6.0,63,0.00,,,0.00,,2013-03-24 06:42:00,
2013-03-24 02:52:00,43.0,32.0,-100.00,WNW,298,3.0,6.0,63,0.00,,,0.00,,2013-03-24 06:52:00,
2013-03-24 03:02:00,45.0,32.0,-100.00,SW,220,5.0,9.0,60,0.00,,,0.00,,2013-03-24 07:02:00,
2013-03-24 03:12:00,45.0,32.0,-100.00,SW,220,5.0,9.0,60,0.00,,,0.00,,2013-03-24 07:12:00,
2013-03-24 03:22:00,45.0,33.0,-100.00,WSW,254,10.0,16.0,63,0.00,,,0.00,,2013-03-24 07:22:00,
2013-03-24 03:32:00,46.0,34.0,-100.00,SSW,203,3.0,6.0,62,0.00,,,0.00,,2013-03-24 07:32:00,
2013-03-24 03:42:00,46.0,34.0,-100.00,SSW,203,3.0,6.0,62,0.00,,,0.00,,2013-03-24 07:42:00,
2013-03-24 03:52:00,46.0,33.0,-100.00,NNE,27,4.0,6.0,62,0.00,,,0.00,,2013-03-24 07:52:00,
2013-03-24 04:03:00,46.0,34.0,-100.00,West,271,4.0,7.0,62,0.00,,,0.00,,2013-03-24 08:03:00,
2013-03-24 04:12:00,46.0,34.0,-100.00,West,271,4.0,7.0,62,0.00,,,0.00,,2013-03-24 08:12:00,
2013-03-24 04:22:00,46.0,34.0,-100.00,WSW,258,8.0,11.0,62,0.00,,,0.00,,2013-03-24 08:22:00,
2013-03-24 04:32:00,46.0,34.0,-100.00,WSW,244,6.0,10.0,62,0.00,,,0.00,,2013-03-24 08:32:00,
2013-03-24 04:42:00,46.0,34.0,-100.00,West,265,10.0,13.0,62,0.00,,,0.00,,2013-03-24 08:42:00,
2013-03-24 04:52:00,46.0,34.0,-100.00,West,265,10.0,13.0,62,0.00,,,0.00,,2013-03-24 08:52:00,
2013-03-24 05:02:00,46.0,35.0,-100.00,WNW,287,4.0,8.0,64,0.00,,,0.00,,2013-03-24 09:02:00,
2013-03-24 05:12:00,46.0,35.0,-100.00,WNW,287,4.0,8.0,64,0.00,,,0.00,,2013-03-24 09:12:00,
2013-03-24 05:22:00,46.0,36.0,-100.00,WSW,251,9.0,14.0,68,0.01,,,0.00,,2013-03-24 09:22:00,
2013-03-24 05:33:00,45.0,36.0,-100.00,SSW,213,6.0,10.0,71,0.01,,,0.00,,2013-03-24 09:33:00,
2013-03-24 05:42:00,45.0,36.0,-100.00,SSW,213,6.0,10.0,71,0.01,,,0.00,,2013-03-24 09:42:00,
2013-03-24 05:53:00,45.0,37.0,-100.00,SSW,209,2.0,4.0,75,0.31,,,0.04,,2013-03-24 09:53:00,
2013-03-24 06:03:00,43.0,38.0,-100.00,SW,220,2.0,3.0,83,0.41,,,0.12,,2013-03-24 10:03:00,
2013-03-24 06:12:00,43.0,38.0,-100.00,SW,220,2.0,3.0,83,0.41,,,0.12,,2013-03-24 10:12:00,
2013-03-24 06:23:00,42.0,38.0,-100.00,SW,233,4.0,7.0,86,0.35,,,0.18,,2013-03-24 10:23:00,
2013-03-24 06:33:00,43.0,39.0,-100.00,WNW,287,3.0,7.0,85,0.17,,,0.23,,2013-03-24 10:33:00,
2013-03-24 06:42:00,43.0,39.0,-100.00,WNW,287,3.0,7.0,85,0.17,,,0.23,,2013-03-24 10:42:00,
2013-03-24 06:52:00,44.0,40.0,-100.00,WNW,295,5.0,8.0,85,0.10,,,0.27,,2013-03-24 10:52:00,
2013-03-24 07:03:00,44.0,40.0,-100.00,NNW,347,5.0,8.0,83,0.17,,,0.30,,2013-03-24 11:03:00,
2013-03-24 07:12:00,44.0,40.0,-100.00,NNW,347,5.0,8.0,83,0.17,,,0.30,,2013-03-24 11:12:00,
2013-03-24 07:22:00,44.0,40.0,-100.00,NW,320,6.0,8.0,85,0.20,,,0.33,,2013-03-24 11:22:00,
2013-03-24 07:33:00,43.0,40.0,-100.00,East,82,1.0,2.0,87,0.20,,,0.37,,2013-03-24 11:33:00,
2013-03-24 07:42:00,43.0,40.0,-100.00,East,82,1.0,2.0,87,0.20,,,0.37,,2013-03-24 11:42:00,
2013-03-24 07:52:00,45.0,41.0,-100.00,WNW,302,5.0,9.0,87,0.21,,,0.41,,2013-03-24 11:52:00,
2013-03-24 08:03:00,45.0,41.0,-100.00,WNW,302,5.0,9.0,87,0.21,,,0.41,,2013-03-24 12:03:00,
2013-03-24 08:13:00,43.0,40.0,-100.00,NW,315,1.0,5.0,92,0.34,,,0.47,,2013-03-24 12:13:00,
2013-03-24 08:23:00,42.0,40.0,-100.00,North,357,1.0,3.0,94,0.28,,,0.54,,2013-03-24 12:23:00,
2013-03-24 08:32:00,42.0,41.0,-100.00,NNW,340,2.0,3.0,96,0.13,,,0.59,,2013-03-24 12:32:00,
2013-03-24 08:42:00,42.0,41.0,-100.00,NNW,340,2.0,3.0,96,0.13,,,0.59,,2013-03-24 12:42:00,
2013-03-24 08:52:00,42.0,41.0,-100.00,SE,141,0.0,2.0,95,0.20,,,0.64,,2013-03-24 12:52:00,
2013-03-24 09:02:00,43.0,41.0,-100.00,SSE,147,1.0,2.0,93,0.13,,,0.70,,2013-03-24 13:02:00,
2013-03-24 09:13:00,43.0,41.0,-100.00,SSE,147,1.0,2.0,93,0.13,,,0.70,,2013-03-24 13:13:00,
2013-03-24 09:23:00,43.0,41.0,-100.00,SW,236,1.0,3.0,94,0.09,,,0.75,,2013-03-24 13:23:00,
2013-03-24 09:32:00,43.0,41.0,-100.00,NW,312,4.0,7.0,90,0.07,,,0.77,,2013-03-24 13:32:00,
2013-03-24 09:42:00,43.0,41.0,-100.00,NW,312,4.0,7.0,90,0.07,,,0.77,,2013-03-24 13:42:00,
2013-03-24 09:52:00,44.0,40.0,-100.00,NW,326,4.0,7.0,89,0.28,,,0.81,,2013-03-24 13:52:00,
2013-03-24 10:02:00,44.0,40.0,-100.00,NW,320,5.0,9.0,85,0.33,,,0.88,,2013-03-24 14:02:00,
2013-03-24 10:13:00,44.0,40.0,-100.00,NW,320,5.0,9.0,85,0.33,,,0.88,,2013-03-24 14:13:00,
2013-03-24 10:22:00,43.0,40.0,-100.00,ESE,110,9.0,15.0,86,0.04,,,0.93,,2013-03-24 14:22:00,
2013-03-24 10:32:00,43.0,40.0,-100.00,ESE,121,7.0,10.0,87,0.04,,,0.94,,2013-03-24 14:32:00,
2013-03-24 10:42:00,43.0,40.0,-100.00,ESE,121,7.0,10.0,87,0.04,,,0.94,,2013-03-24 14:42:00,
2013-03-24 10:53:00,44.0,40.0,-100.00,WSW,240,7.0,11.0,88,0.00,,,0.95,,2013-03-24 14:53:00,
2013-03-24 11:02:00,43.0,40.0,-100.00,NE,54,6.0,8.0,89,0.01,,,0.96,,2013-03-24 15:02:00,
2013-03-24 11:13:00,43.0,40.0,-100.00,NE,54,6.0,8.0,89,0.01,,,0.96,,2013-03-24 15:13:00,
2013-03-24 11:22:00,44.0,40.0,-100.00,West,278,7.0,13.0,85,0.04,,,0.96,,2013-03-24 15:22:00,
2013-03-24 11:33:00,43.0,40.0,-100.00,WSW,253,16.0,21.0,88,0.01,,,0.98,,2013-03-24 15:33:00,
2013-03-24 11:43:00,43.0,40.0,-100.00,WSW,253,16.0,21.0,88,0.01,,,0.98,,2013-03-24 15:43:00,
2013-03-24 11:53:00,43.0,40.0,-100.00,WSW,253,16.0,21.0,88,0.01,,,0.98,,2013-03-24 15:53:00,
2013-03-24 12:03:00,43.0,40.0,-100.00,SSW,213,6.0,14.0,89,0.03,,,1.00,,2013-03-24 16:03:00,
2013-03-24 12:13:00,43.0,40.0,-100.00,SSW,213,6.0,14.0,89,0.03,,,1.00,,2013-03-24 16:13:00,
2013-03-24 12:23:00,43.0,40.0,-100.00,WSW,247,6.0,11.0,90,0.06,,,1.02,,2013-03-24 16:23:00,
2013-03-24 12:33:00,43.0,40.0,-100.00,SW,227,7.0,10.0,90,0.26,,,1.06,,2013-03-24 16:33:00,
2013-03-24 12:43:00,43.0,40.0,-100.00,SW,227,7.0,10.0,90,0.26,,,1.06,,2013-03-24 16:43:00,
2013-03-24 12:53:00,42.0,40.0,-100.00,WSW,247,9.0,13.0,93,0.27,,,1.17,,2013-03-24 16:53:00,
2013-03-24 13:03:00,42.0,40.0,-100.00,WSW,247,9.0,13.0,93,0.27,,,1.17,,2013-03-24 17:03:00,
2013-03-24 13:12:00,42.0,40.0,-100.00,WSW,247,9.0,13.0,93,0.27,,,1.17,,2013-03-24 17:12:00,
2013-03-24 13:23:00,42.0,40.0,-100.00,SSW,213,4.0,8.0,94,0.11,,,1.22,,2013-03-24 17:23:00,
2013-03-24 13:33:00,43.0,41.0,-100.00,SW,223,5.0,8.0,94,0.11,,,1.24,,2013-03-24 17:33:00,
2013-03-24 13:42:00,43.0,41.0,-100.00,SW,223,5.0,8.0,94,0.11,,,1.24,,2013-03-24 17:42:00,
2013-03-24 13:53:00,43.0,40.0,-100.00,WSW,237,10.0,15.0,91,0.16,,,1.26,,2013-03-24 17:53:00,
2013-03-24 14:03:00,42.0,41.0,-100.00,WSW,247,12.0,20.0,93,0.01,,,1.28,,2013-03-24 18:03:00,
2013-03-24 14:12:00,42.0,41.0,-100.00,WSW,247,12.0,20.0,93,0.01,,,1.28,,2013-03-24 18:12:00,
2013-03-24 14:22:00,43.0,40.0,-100.00,SW,217,10.0,18.0,91,0.00,,,1.28,,2013-03-24 18:22:00,
2013-03-24 14:33:00,44.0,42.0,-100.00,SW,220,5.0,11.0,93,0.00,,,1.28,,2013-03-24 18:33:00,
2013-03-24 14:43:00,44.0,42.0,-100.00,SW,220,5.0,11.0,93,0.00,,,1.28,,2013-03-24 18:43:00,
2013-03-24 14:52:00,44.0,41.0,-100.00,WSW,240,7.0,14.0,91,0.00,,,1.28,,2013-03-24 18:52:00,
2013-03-24 15:03:00,44.0,41.0,-100.00,WSW,251,11.0,17.0,90,0.00,,,1.28,,2013-03-24 19:03:00,
2013-03-24 15:12:00,44.0,41.0,-100.00,WSW,251,11.0,17.0,90,0.00,,,1.28,,2013-03-24 19:12:00,
2013-03-24 15:23:00,44.0,41.0,-100.00,SW,233,11.0,15.0,89,0.00,,,1.28,,2013-03-24 19:23:00,
2013-03-24 15:32:00,44.0,42.0,-100.00,SSW,210,8.0,17.0,90,0.00,,,1.28,,2013-03-24 19:32:00,
2013-03-24 15:43:00,44.0,42.0,-100.00,SSW,210,8.0,17.0,90,0.00,,,1.28,,2013-03-24 19:43:00,
2013-03-24 15:53:00,44.0,42.0,-100.00,SW,226,6.0,9.0,94,0.00,,,1.28,,2013-03-24 19:53:00,
2013-03-24 16:03:00,44.0,42.0,-100.00,SW,226,6.0,9.0,94,0.00,,,1.28,,2013-03-24 20:03:00,
2013-03-24 16:12:00,44.0,42.0,-100.00,SW,226,6.0,9.0,94,0.00,,,1.28,,2013-03-24 20:12:00,
2013-03-24 16:22:00,44.0,43.0,-100.00,SW,230,5.0,8.0,94,0.00,,,1.28,,2013-03-24 20:22:00,
2013-03-24 16:32:00,45.0,43.0,-100.00,SW,223,5.0,10.0,92,0.00,,,1.28,,2013-03-24 20:32:00,
2013-03-24 16:43:00,45.0,43.0,-100.00,SW,223,5.0,10.0,92,0.00,,,1.28,,2013-03-24 20:43:00,
2013-03-24 16:53:00,46.0,43.0,-100.00,SSW,210,5.0,9.0,89,0.00,,,1.28,,2013-03-24 20:53:00,
2013-03-24 17:02:00,46.0,42.0,-100.00,SSW,212,5.0,9.0,87,0.00,,,1.28,,2013-03-24 21:02:00,
2013-03-24 17:12:00,46.0,42.0,-100.00,SSW,212,5.0,9.0,87,0.00,,,1.28,,2013-03-24 21:12:00,
2013-03-24 17:22:00,46.0,43.0,-100.00,SW,227,4.0,7.0,88,0.00,,,1.28,,2013-03-24 21:22:00,
2013-03-24 17:33:00,46.0,42.0,-100.00,SSW,210,5.0,6.0,85,0.00,,,1.28,,2013-03-24 21:33:00,
2013-03-24 17:43:00,46.0,42.0,-100.00,SSW,210,5.0,6.0,85,0.00,,,1.28,,2013-03-24 21:43:00,
2013-03-24 17:53:00,47.0,43.0,-100.00,SSW,208,1.0,3.0,85,0.00,,,1.28,,2013-03-24 21:53:00,
2013-03-24 18:03:00,47.0,42.0,-100.00,ESE,119,5.0,8.0,82,0.00,,,1.28,,2013-03-24 22:03:00,
2013-03-24 18:13:00,47.0,42.0,-100.00,ESE,119,5.0,8.0,82,0.00,,,1.28,,2013-03-24 22:13:00,
2013-03-24 18:23:00,47.0,42.0,-100.00,East,100,0.0,1.0,83,0.00,,,1.28,,2013-03-24 22:23:00,
2013-03-24 18:33:00,47.0,42.0,-100.00,ENE,72,5.0,9.0,82,0.00,,,1.28,,2013-03-24 22:33:00,
2013-03-24 18:43:00,47.0,42.0,-100.00,ENE,72,5.0,9.0,82,0.00,,,1.28,,2013-03-24 22:43:00,
2013-03-24 18:53:00,47.0,43.0,-100.00,WSW,244,9.0,15.0,84,0.55,,,1.29,,2013-03-24 22:53:00,
2013-03-24 19:03:00,47.0,43.0,-100.00,WSW,244,9.0,15.0,84,0.55,,,1.29,,2013-03-24 23:03:00,
2013-03-24 19:12:00,47.0,43.0,-100.00,WSW,244,9.0,15.0,84,0.55,,,1.29,,2013-03-24 23:12:00,
2013-03-24 19:23:00,46.0,42.0,-100.00,SW,220,3.0,5.0,88,0.00,,,1.33,,2013-03-24 23:23:00,
2013-03-24 19:32:00,46.0,42.0,-100.00,West,275,9.0,14.0,86,0.14,,,1.33,,2013-03-24 23:32:00,
2013-03-24 19:42:00,46.0,42.0,-100.00,West,275,9.0,14.0,86,0.14,,,1.33,,2013-03-24 23:42:00,
2013-03-24 19:53:00,46.0,42.0,-100.00,WNW,282,7.0,12.0,86,0.20,,,1.37,,2013-03-24 23:53:00,
2013-03-24 20:02:00,46.0,43.0,-100.00,ESE,114,3.0,7.0,88,0.04,,,1.43,,2013-03-25 00:02:00,
2013-03-24 20:12:00,46.0,43.0,-100.00,ESE,114,3.0,7.0,88,0.04,,,1.43,,2013-03-25 00:12:00,
2013-03-24 20:23:00,46.0,42.0,-100.00,SSE,167,6.0,11.0,87,0.04,,,1.43,,2013-03-25 00:23:00,
2013-03-24 20:32:00,45.0,42.0,-100.00,SSE,154,9.0,14.0,86,0.03,,,1.46,,2013-03-25 00:32:00,
2013-03-24 20:43:00,45.0,42.0,-100.00,SSE,154,9.0,14.0,86,0.03,,,1.46,,2013-03-25 00:43:00,
2013-03-24 20:53:00,45.0,41.0,-100.00,ESE,113,9.0,18.0,88,0.38,,,1.53,,2013-03-25 00:53:00,
2013-03-24 21:02:00,44.0,42.0,-100.00,WSW,258,11.0,18.0,92,0.24,,,1.62,,2013-03-25 01:02:00,
2013-03-24 21:12:00,44.0,42.0,-100.00,WSW,258,11.0,18.0,92,0.24,,,1.62,,2013-03-25 01:12:00,
2013-03-24 21:22:00,43.0,42.0,-100.00,West,268,4.0,9.0,95,0.37,,,1.79,,2013-03-25 01:22:00,
2013-03-24 21:32:00,43.0,42.0,-100.00,West,268,4.0,9.0,95,0.37,,,1.79,,2013-03-25 01:32:00,
2013-03-24 21:42:00,42.0,41.0,-100.00,SW,230,4.0,8.0,96,0.37,,,1.88,,2013-03-25 01:42:00,
2013-03-24 21:53:00,42.0,41.0,-100.00,SW,230,4.0,8.0,96,0.37,,,1.88,,2013-03-25 01:53:00,
2013-03-24 22:02:00,41.0,40.0,-100.00,WSW,247,5.0,8.0,96,0.09,,,1.94,,2013-03-25 02:02:00,
2013-03-24 22:12:00,41.0,40.0,-100.00,WSW,247,5.0,8.0,96,0.09,,,1.94,,2013-03-25 02:12:00,
2013-03-24 22:23:00,41.0,40.0,-100.00,SW,224,2.0,3.0,97,0.09,,,1.99,,2013-03-25 02:23:00,
2013-03-24 22:33:00,40.0,40.0,-100.00,NNW,330,1.0,2.0,96,0.03,,,2.02,,2013-03-25 02:33:00,
2013-03-24 22:43:00,40.0,40.0,-100.00,NNW,330,1.0,2.0,96,0.03,,,2.02,,2013-03-25 02:43:00,
2013-03-24 22:52:00,40.0,39.0,-100.00,SE,140,1.0,2.0,96,0.00,,,2.03,,2013-03-25 02:52:00,
2013-03-24 23:03:00,40.0,39.0,-100.00,WSW,240,3.0,5.0,97,0.00,,,2.03,,2013-03-25 03:03:00,
2013-03-24 23:13:00,40.0,39.0,-100.00,WSW,240,3.0,5.0,97,0.00,,,2.03,,2013-03-25 03:13:00,
2013-03-24 23:23:00,40.0,39.0,-100.00,SW,229,3.0,5.0,97,0.00,,,2.03,,2013-03-25 03:23:00,
2013-03-24 23:33:00,39.0,39.0,-100.00,WSW,240,2.0,4.0,97,0.00,,,2.03,,2013-03-25 03:33:00,
2013-03-24 23:43:00,39.0,39.0,-100.00,WSW,240,2.0,4.0,97,0.00,,,2.03,,2013-03-25 03:43:00,
2013-03-24 23:53:00,40.0,38.0,-100.00,West,270,2.0,3.0,95,0.00,,,2.03,,2013-03-25 03:53:00,